sensor_id;sensor_type;location;lat;lon;timestamp;pressure;altitude;pressure_sealevel;temperature;humidity
15487;BME280;7845;53.698;10.078;2024-03-22T00:00:01;101538.94;;;10.38;77.21
15487;BME280;7845;53.698;10.078;2024-03-22T00:02:26;101537.16;;;10.39;77.92
15487;BME280;7845;53.698;10.078;2024-03-22T00:04:52;101503.28;;;10.20;77.69
15487;BME280;7845;53.698;10.078;2024-03-22T00:07:20;101530.13;;;10.39;77.61
15487;BME280;7845;53.698;10.078;2024-03-22T00:09:46;101541.47;;;10.40;77.58
15487;BME280;7845;53.698;10.078;2024-03-22T00:12:11;101527.88;;;10.33;77.52
15487;BME280;7845;53.698;10.078;2024-03-22T00:14:39;101525.91;;;10.37;77.35
15487;BME280;7845;53.698;10.078;2024-03-22T00:17:14;101530.72;;;10.44;77.60
15487;BME280;7845;53.698;10.078;2024-03-22T00:19:39;101518.78;;;10.39;78.13
15487;BME280;7845;53.698;10.078;2024-03-22T00:22:05;101473.81;;;10.15;78.05
15487;BME280;7845;53.698;10.078;2024-03-22T00:24:30;101515.03;;;10.43;77.92
15487;BME280;7845;53.698;10.078;2024-03-22T00:26:56;101490.34;;;10.31;78.29
15487;BME280;7845;53.698;10.078;2024-03-22T00:29:21;101498.91;;;10.35;78.26
15487;BME280;7845;53.698;10.078;2024-03-22T00:31:47;101510.34;;;10.34;77.79
15487;BME280;7845;53.698;10.078;2024-03-22T00:34:15;101481.75;;;10.29;78.18
15487;BME280;7845;53.698;10.078;2024-03-22T00:36:40;101487.38;;;10.37;77.95
15487;BME280;7845;53.698;10.078;2024-03-22T00:39:06;101481.00;;;10.41;77.97
15487;BME280;7845;53.698;10.078;2024-03-22T00:41:31;101427.88;;;10.08;78.11
15487;BME280;7845;53.698;10.078;2024-03-22T00:43:58;101454.84;;;10.26;78.53
15487;BME280;7845;53.698;10.078;2024-03-22T00:46:24;101450.84;;;10.34;77.86
15487;BME280;7845;53.698;10.078;2024-03-22T00:48:49;101449.63;;;10.40;77.61
15487;BME280;7845;53.698;10.078;2024-03-22T00:51:20;101452.97;;;10.42;77.88
15487;BME280;7845;53.698;10.078;2024-03-22T00:53:46;101463.28;;;10.45;78.39
15487;BME280;7845;53.698;10.078;2024-03-22T00:56:11;101449.63;;;10.40;78.28
15487;BME280;7845;53.698;10.078;2024-03-22T00:58:39;101448.38;;;10.45;77.62
15487;BME280;7845;53.698;10.078;2024-03-22T01:01:07;101411.59;;;10.17;78.40
15487;BME280;7845;53.698;10.078;2024-03-22T01:03:32;101433.19;;;10.36;78.18
15487;BME280;7845;53.698;10.078;2024-03-22T01:05:58;101416.41;;;10.25;78.47
15487;BME280;7845;53.698;10.078;2024-03-22T01:08:23;101389.03;;;10.15;78.18
15487;BME280;7845;53.698;10.078;2024-03-22T01:10:49;101429.66;;;10.37;78.64
15487;BME280;7845;53.698;10.078;2024-03-22T01:13:15;101350.34;;;9.88;78.51
15487;BME280;7845;53.698;10.078;2024-03-22T01:15:40;101385.53;;;10.14;78.34
15487;BME280;7845;53.698;10.078;2024-03-22T01:18:05;101405.81;;;10.26;79.19
15487;BME280;7845;53.698;10.078;2024-03-22T01:20:31;101386.03;;;10.21;79.06
15487;BME280;7845;53.698;10.078;2024-03-22T01:22:59;101399.81;;;10.38;78.97
15487;BME280;7845;53.698;10.078;2024-03-22T01:25:26;101346.28;;;10.13;78.74
15487;BME280;7845;53.698;10.078;2024-03-22T01:27:55;101353.06;;;10.17;78.95
15487;BME280;7845;53.698;10.078;2024-03-22T01:30:21;101360.16;;;10.15;78.69
15487;BME280;7845;53.698;10.078;2024-03-22T01:32:46;101359.13;;;10.17;78.92
15487;BME280;7845;53.698;10.078;2024-03-22T01:35:12;101367.00;;;10.31;78.77
15487;BME280;7845;53.698;10.078;2024-03-22T01:37:37;101350.91;;;10.23;79.07
15487;BME280;7845;53.698;10.078;2024-03-22T01:40:03;101341.34;;;10.22;78.86
15487;BME280;7845;53.698;10.078;2024-03-22T01:42:32;101344.63;;;10.26;79.01
15487;BME280;7845;53.698;10.078;2024-03-22T01:44:57;101317.34;;;10.14;78.84
15487;BME280;7845;53.698;10.078;2024-03-22T01:47:23;101338.13;;;10.31;79.19
15487;BME280;7845;53.698;10.078;2024-03-22T01:49:50;101315.47;;;10.16;79.14
15487;BME280;7845;53.698;10.078;2024-03-22T01:52:19;101336.16;;;10.35;78.91
15487;BME280;7845;53.698;10.078;2024-03-22T01:54:44;101341.34;;;10.36;79.21
15487;BME280;7845;53.698;10.078;2024-03-22T01:57:10;101348.28;;;10.37;78.64
15487;BME280;7845;53.698;10.078;2024-03-22T01:59:35;101343.78;;;10.39;78.76
15487;BME280;7845;53.698;10.078;2024-03-22T02:02:01;101333.53;;;10.35;78.70
15487;BME280;7845;53.698;10.078;2024-03-22T02:04:27;101348.63;;;10.45;78.33
15487;BME280;7845;53.698;10.078;2024-03-22T02:06:53;101301.06;;;10.23;79.00
15487;BME280;7845;53.698;10.078;2024-03-22T02:09:19;101336.56;;;10.43;78.85
15487;BME280;7845;53.698;10.078;2024-03-22T02:11:46;101331.22;;;10.44;78.82
15487;BME280;7845;53.698;10.078;2024-03-22T02:14:12;101273.66;;;10.13;78.70
15487;BME280;7845;53.698;10.078;2024-03-22T02:16:40;101308.59;;;10.42;79.14
15487;BME280;7845;53.698;10.078;2024-03-22T02:19:05;101311.22;;;10.42;78.81
15487;BME280;7845;53.698;10.078;2024-03-22T02:21:31;101297.25;;;10.41;78.07
15487;BME280;7845;53.698;10.078;2024-03-22T02:23:56;101322.19;;;10.48;78.98
15487;BME280;7845;53.698;10.078;2024-03-22T02:26:22;101314.50;;;10.45;79.12
15487;BME280;7845;53.698;10.078;2024-03-22T02:28:50;101317.78;;;10.49;78.83
15487;BME280;7845;53.698;10.078;2024-03-22T02:31:18;101314.44;;;10.47;78.51
15487;BME280;7845;53.698;10.078;2024-03-22T02:33:47;101313.78;;;10.43;78.88
15487;BME280;7845;53.698;10.078;2024-03-22T02:36:12;101302.25;;;10.46;78.50
15487;BME280;7845;53.698;10.078;2024-03-22T02:38:38;101288.00;;;10.36;78.88
15487;BME280;7845;53.698;10.078;2024-03-22T02:41:03;101286.75;;;10.41;78.62
15487;BME280;7845;53.698;10.078;2024-03-22T02:43:29;101313.00;;;10.55;78.56
15487;BME280;7845;53.698;10.078;2024-03-22T02:45:54;101305.03;;;10.57;78.95
15487;BME280;7845;53.698;10.078;2024-03-22T02:48:20;101308.78;;;10.53;78.28
15487;BME280;7845;53.698;10.078;2024-03-22T02:50:48;101318.16;;;10.57;78.70
15487;BME280;7845;53.698;10.078;2024-03-22T02:53:14;101305.88;;;10.57;79.05
15487;BME280;7845;53.698;10.078;2024-03-22T02:55:40;101250.81;;;10.29;79.11
15487;BME280;7845;53.698;10.078;2024-03-22T02:58:07;101296.31;;;10.56;79.06
15487;BME280;7845;53.698;10.078;2024-03-22T03:00:39;101287.78;;;10.53;79.48
15487;BME280;7845;53.698;10.078;2024-03-22T03:03:07;101283.31;;;10.55;79.52
15487;BME280;7845;53.698;10.078;2024-03-22T03:05:33;101286.75;;;10.55;79.29
15487;BME280;7845;53.698;10.078;2024-03-22T03:08:00;101267.06;;;10.48;79.17
15487;BME280;7845;53.698;10.078;2024-03-22T03:10:26;101271.31;;;10.51;79.61
15487;BME280;7845;53.698;10.078;2024-03-22T03:12:53;101256.09;;;10.56;79.59
15487;BME280;7845;53.698;10.078;2024-03-22T03:15:19;101245.13;;;10.49;79.34
15487;BME280;7845;53.698;10.078;2024-03-22T03:17:44;101258.44;;;10.61;79.13
15487;BME280;7845;53.698;10.078;2024-03-22T03:20:10;101236.13;;;10.53;78.90
15487;BME280;7845;53.698;10.078;2024-03-22T03:22:39;101247.72;;;10.64;80.12
15487;BME280;7845;53.698;10.078;2024-03-22T03:25:05;101237.63;;;10.57;79.51
15487;BME280;7845;53.698;10.078;2024-03-22T03:27:31;101252.69;;;10.68;78.94
15487;BME280;7845;53.698;10.078;2024-03-22T03:29:56;101244.16;;;10.65;79.42
15487;BME280;7845;53.698;10.078;2024-03-22T03:32:21;101247.53;;;10.67;79.60
15487;BME280;7845;53.698;10.078;2024-03-22T03:34:50;101215.03;;;10.55;79.82
15487;BME280;7845;53.698;10.078;2024-03-22T03:37:15;101205.75;;;10.49;79.26
15487;BME280;7845;53.698;10.078;2024-03-22T03:39:41;101193.88;;;10.44;79.52
15487;BME280;7845;53.698;10.078;2024-03-22T03:42:06;101222.41;;;10.63;80.11
15487;BME280;7845;53.698;10.078;2024-03-22T03:44:32;101209.41;;;10.61;79.92
15487;BME280;7845;53.698;10.078;2024-03-22T03:47:00;101212.75;;;10.63;79.63
15487;BME280;7845;53.698;10.078;2024-03-22T03:49:25;101209.28;;;10.63;79.82
15487;BME280;7845;53.698;10.078;2024-03-22T03:51:51;101177.09;;;10.46;80.26
15487;BME280;7845;53.698;10.078;2024-03-22T03:54:16;101171.75;;;10.48;79.79
15487;BME280;7845;53.698;10.078;2024-03-22T03:56:41;101199.97;;;10.71;79.39
15487;BME280;7845;53.698;10.078;2024-03-22T03:59:07;101146.47;;;10.33;80.04
15487;BME280;7845;53.698;10.078;2024-03-22T04:01:32;101169.56;;;10.54;80.17
15487;BME280;7845;53.698;10.078;2024-03-22T04:03:58;101157.09;;;10.58;80.40
15487;BME280;7845;53.698;10.078;2024-03-22T04:06:23;101149.69;;;10.50;79.80
15487;BME280;7845;53.698;10.078;2024-03-22T04:08:48;101187.78;;;10.70;80.13
15487;BME280;7845;53.698;10.078;2024-03-22T04:11:14;101167.09;;;10.66;80.02
15487;BME280;7845;53.698;10.078;2024-03-22T04:13:39;101163.41;;;10.68;80.02
15487;BME280;7845;53.698;10.078;2024-03-22T04:16:05;101151.78;;;10.72;79.93
15487;BME280;7845;53.698;10.078;2024-03-22T04:18:31;101138.66;;;10.72;79.80
15487;BME280;7845;53.698;10.078;2024-03-22T04:20:57;101133.97;;;10.63;79.86
15487;BME280;7845;53.698;10.078;2024-03-22T04:23:24;101128.72;;;10.63;80.81
15487;BME280;7845;53.698;10.078;2024-03-22T04:25:54;101133.91;;;10.65;80.80
15487;BME280;7845;53.698;10.078;2024-03-22T04:28:20;101119.50;;;10.57;80.37
15487;BME280;7845;53.698;10.078;2024-03-22T04:30:55;101115.09;;;10.58;80.60
15487;BME280;7845;53.698;10.078;2024-03-22T04:33:21;101142.22;;;10.71;81.12
15487;BME280;7845;53.698;10.078;2024-03-22T04:35:47;101133.69;;;10.68;80.49
15487;BME280;7845;53.698;10.078;2024-03-22T04:38:12;101110.13;;;10.53;80.82
15487;BME280;7845;53.698;10.078;2024-03-22T04:40:37;101117.38;;;10.63;80.94
15487;BME280;7845;53.698;10.078;2024-03-22T04:43:03;101106.59;;;10.67;80.65
15487;BME280;7845;53.698;10.078;2024-03-22T04:45:28;101113.22;;;10.73;80.71
15487;BME280;7845;53.698;10.078;2024-03-22T04:47:54;101100.69;;;10.64;80.33
15487;BME280;7845;53.698;10.078;2024-03-22T04:50:19;101101.53;;;10.64;80.44
15487;BME280;7845;53.698;10.078;2024-03-22T04:52:44;101121.00;;;10.74;81.14
15487;BME280;7845;53.698;10.078;2024-03-22T04:55:12;101105.88;;;10.78;80.98
15487;BME280;7845;53.698;10.078;2024-03-22T04:57:38;101111.03;;;10.79;80.72
15487;BME280;7845;53.698;10.078;2024-03-22T05:00:07;101104.81;;;10.80;80.73
15487;BME280;7845;53.698;10.078;2024-03-22T05:02:37;101100.75;;;10.76;80.10
15487;BME280;7845;53.698;10.078;2024-03-22T05:05:02;101081.91;;;10.70;80.62
15487;BME280;7845;53.698;10.078;2024-03-22T05:07:28;101094.84;;;10.85;80.14
15487;BME280;7845;53.698;10.078;2024-03-22T05:09:53;101093.81;;;10.88;79.72
15487;BME280;7845;53.698;10.078;2024-03-22T05:12:19;101088.75;;;10.85;80.07
15487;BME280;7845;53.698;10.078;2024-03-22T05:14:44;101089.69;;;10.84;80.08
15487;BME280;7845;53.698;10.078;2024-03-22T05:17:10;101091.47;;;10.83;80.24
15487;BME280;7845;53.698;10.078;2024-03-22T05:19:35;101078.88;;;10.88;80.06
15487;BME280;7845;53.698;10.078;2024-03-22T05:22:01;101070.28;;;10.86;79.77
15487;BME280;7845;53.698;10.078;2024-03-22T05:24:29;101075.31;;;10.89;80.26
15487;BME280;7845;53.698;10.078;2024-03-22T05:26:55;101055.47;;;10.73;80.33
15487;BME280;7845;53.698;10.078;2024-03-22T05:29:20;101066.19;;;10.82;81.06
15487;BME280;7845;53.698;10.078;2024-03-22T05:31:49;101071.53;;;10.81;81.17
15487;BME280;7845;53.698;10.078;2024-03-22T05:34:16;101040.00;;;10.68;81.29
15487;BME280;7845;53.698;10.078;2024-03-22T05:36:42;101074.56;;;10.87;81.20
15487;BME280;7845;53.698;10.078;2024-03-22T05:39:07;101073.00;;;10.85;80.60
15487;BME280;7845;53.698;10.078;2024-03-22T05:41:33;101058.50;;;10.79;80.68
15487;BME280;7845;53.698;10.078;2024-03-22T05:43:59;101050.94;;;10.75;80.87
15487;BME280;7845;53.698;10.078;2024-03-22T05:46:24;101078.38;;;10.96;80.66
15487;BME280;7845;53.698;10.078;2024-03-22T05:48:53;101079.31;;;10.95;81.13
15487;BME280;7845;53.698;10.078;2024-03-22T05:51:19;101040.53;;;10.73;80.95
15487;BME280;7845;53.698;10.078;2024-03-22T05:53:44;101025.09;;;10.69;80.35
15487;BME280;7845;53.698;10.078;2024-03-22T05:56:10;101050.09;;;10.87;81.29
15487;BME280;7845;53.698;10.078;2024-03-22T05:58:35;100996.94;;;10.58;80.30
15487;BME280;7845;53.698;10.078;2024-03-22T06:01:02;101046.84;;;10.96;80.70
15487;BME280;7845;53.698;10.078;2024-03-22T06:03:28;101082.47;;;11.13;80.83
15487;BME280;7845;53.698;10.078;2024-03-22T06:05:54;101080.59;;;11.15;80.53
15487;BME280;7845;53.698;10.078;2024-03-22T06:08:25;101067.56;;;11.13;81.18
15487;BME280;7845;53.698;10.078;2024-03-22T06:10:52;101060.22;;;11.18;81.43
15487;BME280;7845;53.698;10.078;2024-03-22T06:13:18;101050.50;;;11.19;81.48
15487;BME280;7845;53.698;10.078;2024-03-22T06:15:43;101047.47;;;11.25;81.38
15487;BME280;7845;53.698;10.078;2024-03-22T06:18:15;101049.88;;;11.28;80.69
15487;BME280;7845;53.698;10.078;2024-03-22T06:20:43;101025.41;;;11.15;81.59
15487;BME280;7845;53.698;10.078;2024-03-22T06:23:09;101052.50;;;11.40;80.36
15487;BME280;7845;53.698;10.078;2024-03-22T06:25:38;101055.88;;;11.42;81.02
15487;BME280;7845;53.698;10.078;2024-03-22T06:28:03;101052.66;;;11.50;80.89
15487;BME280;7845;53.698;10.078;2024-03-22T06:30:31;101046.16;;;11.55;80.40
15487;BME280;7845;53.698;10.078;2024-03-22T06:33:03;100961.59;;;11.13;80.26
15487;BME280;7845;53.698;10.078;2024-03-22T06:35:30;100960.94;;;11.22;79.87
15487;BME280;7845;53.698;10.078;2024-03-22T06:37:55;100974.47;;;11.41;80.33
15487;BME280;7845;53.698;10.078;2024-03-22T06:40:21;101023.50;;;11.78;79.97
15487;BME280;7845;53.698;10.078;2024-03-22T06:42:48;100985.22;;;11.62;79.98
15487;BME280;7845;53.698;10.078;2024-03-22T06:45:14;100993.94;;;11.75;79.78
15487;BME280;7845;53.698;10.078;2024-03-22T06:47:43;100971.44;;;11.71;79.59
15487;BME280;7845;53.698;10.078;2024-03-22T06:50:09;100995.47;;;11.90;79.43
15487;BME280;7845;53.698;10.078;2024-03-22T06:52:34;100980.00;;;11.85;80.11
15487;BME280;7845;53.698;10.078;2024-03-22T06:55:03;100899.09;;;11.41;78.85
15487;BME280;7845;53.698;10.078;2024-03-22T06:57:29;100968.53;;;11.86;80.51
15487;BME280;7845;53.698;10.078;2024-03-22T06:59:54;100989.66;;;11.97;79.72
15487;BME280;7845;53.698;10.078;2024-03-22T07:02:24;100992.16;;;11.99;79.34
15487;BME280;7845;53.698;10.078;2024-03-22T07:04:50;100993.00;;;11.99;79.60
15487;BME280;7845;53.698;10.078;2024-03-22T07:07:18;100974.66;;;11.87;79.34
15487;BME280;7845;53.698;10.078;2024-03-22T07:09:47;100946.72;;;11.73;80.05
15487;BME280;7845;53.698;10.078;2024-03-22T07:12:15;100942.09;;;11.77;80.22
15487;BME280;7845;53.698;10.078;2024-03-22T07:14:41;100986.78;;;12.00;80.27
15487;BME280;7845;53.698;10.078;2024-03-22T07:17:06;100895.53;;;11.53;79.96
15487;BME280;7845;53.698;10.078;2024-03-22T07:19:35;100977.41;;;12.20;79.58
15487;BME280;7845;53.698;10.078;2024-03-22T07:22:03;100931.03;;;11.95;80.26
15487;BME280;7845;53.698;10.078;2024-03-22T07:24:29;100938.97;;;12.06;79.18
15487;BME280;7845;53.698;10.078;2024-03-22T07:26:54;100994.59;;;12.37;78.76
15487;BME280;7845;53.698;10.078;2024-03-22T07:29:20;100985.94;;;12.35;79.19
15487;BME280;7845;53.698;10.078;2024-03-22T07:31:48;100989.41;;;12.35;79.84
15487;BME280;7845;53.698;10.078;2024-03-22T07:34:14;100986.09;;;12.44;79.09
15487;BME280;7845;53.698;10.078;2024-03-22T07:36:40;100965.50;;;12.38;79.15
15487;BME280;7845;53.698;10.078;2024-03-22T07:39:09;100992.22;;;12.56;79.15
15487;BME280;7845;53.698;10.078;2024-03-22T07:41:35;100959.88;;;12.43;78.40
15487;BME280;7845;53.698;10.078;2024-03-22T07:44:02;100899.63;;;12.05;78.46
15487;BME280;7845;53.698;10.078;2024-03-22T07:46:32;100977.75;;;12.62;78.03
15487;BME280;7845;53.698;10.078;2024-03-22T07:48:58;100975.00;;;12.63;79.09
15487;BME280;7845;53.698;10.078;2024-03-22T07:51:24;100842.16;;;11.88;78.91
15487;BME280;7845;53.698;10.078;2024-03-22T07:53:50;100978.84;;;12.70;78.75
15487;BME280;7845;53.698;10.078;2024-03-22T07:56:17;100975.03;;;12.74;78.22
15487;BME280;7845;53.698;10.078;2024-03-22T07:58:42;100937.03;;;12.43;77.86
15487;BME280;7845;53.698;10.078;2024-03-22T08:01:08;100939.28;;;12.48;78.15
15487;BME280;7845;53.698;10.078;2024-03-22T08:03:34;100838.94;;;11.95;78.61
15487;BME280;7845;53.698;10.078;2024-03-22T08:05:59;100941.59;;;12.64;78.30
15487;BME280;7845;53.698;10.078;2024-03-22T08:08:25;100900.41;;;12.40;78.35
15487;BME280;7845;53.698;10.078;2024-03-22T08:10:53;100891.88;;;12.26;78.20
15487;BME280;7845;53.698;10.078;2024-03-22T08:13:21;100882.78;;;12.19;78.17
15487;BME280;7845;53.698;10.078;2024-03-22T08:15:47;100872.31;;;12.06;78.31
15487;BME280;7845;53.698;10.078;2024-03-22T08:18:15;100881.19;;;12.05;78.94
15487;BME280;7845;53.698;10.078;2024-03-22T08:20:44;100960.13;;;12.51;78.29
15487;BME280;7845;53.698;10.078;2024-03-22T08:23:10;100886.91;;;11.99;78.91
15487;BME280;7845;53.698;10.078;2024-03-22T08:25:38;100874.97;;;11.95;79.58
15487;BME280;7845;53.698;10.078;2024-03-22T08:28:04;100951.84;;;12.44;79.92
15487;BME280;7845;53.698;10.078;2024-03-22T08:30:33;100897.00;;;12.16;79.45
15487;BME280;7845;53.698;10.078;2024-03-22T08:32:58;100947.31;;;12.46;79.67
15487;BME280;7845;53.698;10.078;2024-03-22T08:35:27;100942.31;;;12.43;80.62
15487;BME280;7845;53.698;10.078;2024-03-22T08:38:11;100947.91;;;12.39;80.61
15487;BME280;7845;53.698;10.078;2024-03-22T08:40:39;100947.19;;;12.37;80.83
15487;BME280;7845;53.698;10.078;2024-03-22T08:43:11;100927.31;;;12.33;80.65
15487;BME280;7845;53.698;10.078;2024-03-22T08:45:36;100937.97;;;12.42;80.92
15487;BME280;7845;53.698;10.078;2024-03-22T08:48:05;100894.97;;;12.20;80.81
15487;BME280;7845;53.698;10.078;2024-03-22T08:50:50;100935.44;;;12.41;82.15
15487;BME280;7845;53.698;10.078;2024-03-22T08:53:18;100877.59;;;12.06;81.32
15487;BME280;7845;53.698;10.078;2024-03-22T08:55:47;100934.38;;;12.32;81.36
15487;BME280;7845;53.698;10.078;2024-03-22T08:58:23;100857.34;;;11.84;81.46
15487;BME280;7845;53.698;10.078;2024-03-22T09:00:51;100910.75;;;12.20;82.03
15487;BME280;7845;53.698;10.078;2024-03-22T09:03:21;100930.19;;;12.30;82.03
15487;BME280;7845;53.698;10.078;2024-03-22T09:06:07;100847.03;;;11.81;82.29
15487;BME280;7845;53.698;10.078;2024-03-22T09:08:33;100876.03;;;12.03;81.99
15487;BME280;7845;53.698;10.078;2024-03-22T09:11:01;100943.34;;;12.41;81.81
15487;BME280;7845;53.698;10.078;2024-03-22T09:13:30;100924.22;;;12.39;82.89
15487;BME280;7845;53.698;10.078;2024-03-22T09:15:58;100928.19;;;12.55;82.37
15487;BME280;7845;53.698;10.078;2024-03-22T09:18:30;100903.88;;;12.52;82.05
15487;BME280;7845;53.698;10.078;2024-03-22T09:20:56;100869.75;;;12.39;82.29
15487;BME280;7845;53.698;10.078;2024-03-22T09:23:22;100864.75;;;12.36;81.95
15487;BME280;7845;53.698;10.078;2024-03-22T09:25:47;100855.50;;;12.31;81.96
15487;BME280;7845;53.698;10.078;2024-03-22T09:28:22;100885.81;;;12.47;81.72
15487;BME280;7845;53.698;10.078;2024-03-22T09:30:54;100867.47;;;12.35;83.02
15487;BME280;7845;53.698;10.078;2024-03-22T09:33:19;100891.41;;;12.65;82.44
15487;BME280;7845;53.698;10.078;2024-03-22T09:35:50;100881.38;;;12.70;81.96
15487;BME280;7845;53.698;10.078;2024-03-22T09:38:15;100804.63;;;12.30;82.07
15487;BME280;7845;53.698;10.078;2024-03-22T09:40:41;100886.06;;;12.78;82.10
15487;BME280;7845;53.698;10.078;2024-03-22T09:43:07;100807.16;;;12.32;81.59
15487;BME280;7845;53.698;10.078;2024-03-22T09:45:38;100883.78;;;12.84;82.28
15487;BME280;7845;53.698;10.078;2024-03-22T09:48:25;100800.38;;;12.40;82.49
15487;BME280;7845;53.698;10.078;2024-03-22T09:50:52;100850.63;;;12.71;81.70
15487;BME280;7845;53.698;10.078;2024-03-22T09:53:25;100874.41;;;12.91;81.79
15487;BME280;7845;53.698;10.078;2024-03-22T09:55:52;100857.19;;;12.87;82.31
15487;BME280;7845;53.698;10.078;2024-03-22T09:58:17;100856.47;;;12.85;81.44
15487;BME280;7845;53.698;10.078;2024-03-22T10:00:43;100814.47;;;12.50;81.89
15487;BME280;7845;53.698;10.078;2024-03-22T10:03:10;100864.38;;;12.74;82.23
15487;BME280;7845;53.698;10.078;2024-03-22T10:05:35;100860.41;;;12.69;81.97
15487;BME280;7845;53.698;10.078;2024-03-22T10:08:01;100807.16;;;12.32;82.36
15487;BME280;7845;53.698;10.078;2024-03-22T10:10:27;100854.94;;;12.61;82.29
15487;BME280;7845;53.698;10.078;2024-03-22T10:12:52;100865.94;;;12.66;82.35
15487;BME280;7845;53.698;10.078;2024-03-22T10:15:18;100860.66;;;12.66;82.99
15487;BME280;7845;53.698;10.078;2024-03-22T10:17:45;100848.34;;;12.66;82.54
15487;BME280;7845;53.698;10.078;2024-03-22T10:20:13;100852.06;;;12.75;83.21
15487;BME280;7845;53.698;10.078;2024-03-22T10:22:48;100863.03;;;12.80;83.27
15487;BME280;7845;53.698;10.078;2024-03-22T10:25:14;100851.66;;;12.79;82.79
15487;BME280;7845;53.698;10.078;2024-03-22T10:27:40;100807.78;;;12.46;82.72
15487;BME280;7845;53.698;10.078;2024-03-22T10:30:09;100841.38;;;12.65;82.86
15487;BME280;7845;53.698;10.078;2024-03-22T10:32:38;100867.00;;;12.74;83.35
15487;BME280;7845;53.698;10.078;2024-03-22T10:35:03;100807.06;;;12.33;83.42
15487;BME280;7845;53.698;10.078;2024-03-22T10:37:32;100868.94;;;12.61;83.85
15487;BME280;7845;53.698;10.078;2024-03-22T10:39:58;100827.63;;;12.39;83.59
15487;BME280;7845;53.698;10.078;2024-03-22T10:42:26;100866.16;;;12.63;83.62
15487;BME280;7845;53.698;10.078;2024-03-22T10:44:51;100862.69;;;12.62;82.96
15487;BME280;7845;53.698;10.078;2024-03-22T10:47:17;100826.09;;;12.37;83.54
15487;BME280;7845;53.698;10.078;2024-03-22T10:49:45;100857.31;;;12.52;83.76
15487;BME280;7845;53.698;10.078;2024-03-22T10:52:13;100841.41;;;12.43;83.85
15487;BME280;7845;53.698;10.078;2024-03-22T10:54:40;100852.41;;;12.48;83.95
15487;BME280;7845;53.698;10.078;2024-03-22T10:57:13;100850.00;;;12.45;83.77
15487;BME280;7845;53.698;10.078;2024-03-22T10:59:41;100842.94;;;12.23;83.72
15487;BME280;7845;53.698;10.078;2024-03-22T11:02:10;100833.00;;;12.16;84.76
15487;BME280;7845;53.698;10.078;2024-03-22T11:04:36;100795.19;;;11.94;84.77
15487;BME280;7845;53.698;10.078;2024-03-22T11:07:01;100808.38;;;12.05;85.33
15487;BME280;7845;53.698;10.078;2024-03-22T11:09:28;100849.16;;;12.22;84.97
15487;BME280;7845;53.698;10.078;2024-03-22T11:11:55;100828.19;;;12.10;85.33
15487;BME280;7845;53.698;10.078;2024-03-22T11:14:22;100747.88;;;11.60;84.34
15487;BME280;7845;53.698;10.078;2024-03-22T11:16:50;100832.03;;;12.17;84.41
15487;BME280;7845;53.698;10.078;2024-03-22T11:19:16;100839.09;;;12.16;84.85
15487;BME280;7845;53.698;10.078;2024-03-22T11:21:42;100844.16;;;12.19;84.91
15487;BME280;7845;53.698;10.078;2024-03-22T11:24:07;100839.25;;;12.26;84.73
15487;BME280;7845;53.698;10.078;2024-03-22T11:26:33;100847.00;;;12.27;84.59
15487;BME280;7845;53.698;10.078;2024-03-22T11:28:59;100838.28;;;12.16;84.71
15487;BME280;7845;53.698;10.078;2024-03-22T11:31:24;100814.31;;;11.96;85.35
15487;BME280;7845;53.698;10.078;2024-03-22T11:33:56;100830.59;;;12.13;84.10
15487;BME280;7845;53.698;10.078;2024-03-22T11:36:24;100805.72;;;12.05;84.50
15487;BME280;7845;53.698;10.078;2024-03-22T11:38:49;100829.91;;;12.22;84.96
15487;BME280;7845;53.698;10.078;2024-03-22T11:41:20;100809.31;;;12.16;84.33
15487;BME280;7845;53.698;10.078;2024-03-22T11:43:49;100838.41;;;12.25;83.68
15487;BME280;7845;53.698;10.078;2024-03-22T11:46:15;100786.31;;;11.95;84.27
15487;BME280;7845;53.698;10.078;2024-03-22T11:48:41;100829.78;;;12.34;83.88
15487;BME280;7845;53.698;10.078;2024-03-22T11:51:08;100768.88;;;11.94;83.29
15487;BME280;7845;53.698;10.078;2024-03-22T11:53:35;100822.47;;;12.38;83.05
15487;BME280;7845;53.698;10.078;2024-03-22T11:56:01;100721.50;;;11.83;83.35
15487;BME280;7845;53.698;10.078;2024-03-22T11:58:29;100815.66;;;12.46;83.07
15487;BME280;7845;53.698;10.078;2024-03-22T12:00:56;100817.13;;;12.50;82.39
15487;BME280;7845;53.698;10.078;2024-03-22T12:03:22;100812.91;;;12.48;83.00
15487;BME280;7845;53.698;10.078;2024-03-22T12:05:48;100745.31;;;12.04;82.34
15487;BME280;7845;53.698;10.078;2024-03-22T12:08:16;100790.06;;;12.26;83.29
15487;BME280;7845;53.698;10.078;2024-03-22T12:10:41;100794.59;;;12.35;82.72
15487;BME280;7845;53.698;10.078;2024-03-22T12:13:07;100793.31;;;12.30;83.86
15487;BME280;7845;53.698;10.078;2024-03-22T12:15:32;100681.84;;;11.40;84.39
15487;BME280;7845;53.698;10.078;2024-03-22T12:17:58;100798.41;;;12.20;84.83
15487;BME280;7845;53.698;10.078;2024-03-22T12:20:23;100804.44;;;12.22;84.72
15487;BME280;7845;53.698;10.078;2024-03-22T12:22:49;100762.06;;;11.81;85.54
15487;BME280;7845;53.698;10.078;2024-03-22T12:25:14;100798.66;;;12.06;85.73
15487;BME280;7845;53.698;10.078;2024-03-22T12:27:39;100803.53;;;11.99;85.63
15487;BME280;7845;53.698;10.078;2024-03-22T12:30:05;100795.41;;;11.80;86.16
15487;BME280;7845;53.698;10.078;2024-03-22T12:32:31;100755.44;;;11.40;86.66
15487;BME280;7845;53.698;10.078;2024-03-22T12:34:56;100820.53;;;11.84;86.71
15487;BME280;7845;53.698;10.078;2024-03-22T12:37:22;100784.06;;;11.67;86.61
15487;BME280;7845;53.698;10.078;2024-03-22T12:39:47;100742.69;;;11.47;86.56
15487;BME280;7845;53.698;10.078;2024-03-22T12:42:13;100816.06;;;11.74;86.00
15487;BME280;7845;53.698;10.078;2024-03-22T12:44:38;100804.06;;;11.70;87.34
15487;BME280;7845;53.698;10.078;2024-03-22T12:47:03;100813.31;;;11.75;86.90